Pt. Reyes RCA field Weather observations

Data are for 10 minute period ending at time listed.
 Day   Time   Solar   Ave.   Ave.  Ave.  Vector    Max.   Stn.   Total 
  of    of     Rad.   Air    Rel.  Wind   Wind     Wind   Baro. Precip.
Year   Day            Temp.  Hum.  Speed  Dir.     Gust   Pres.        
2017   (PST)   W/m2    F      %     mph   deg.      mph    mb.    in.  
-----------------------------------------------------------------------
 113   12:30  839.0    57   78.8    21    290.1    26.5   1013.5  0.00  
 113   12:40  853.0    57   79.0    21    288.8    27.5   1013.5  0.00  
 113   12:50  820.0    57   79.4    22    291.2    27.0   1013.5  0.00  
 113   13:00  846.0    58   79.7    21    290.2    27.2   1013.5  0.00  
 113   13:10  833.0    58   80.3    19    289.2    24.7   1013.9  0.00  
 113   13:20  827.0    58   80.9    18    288.7    23.2   1013.9  0.00  
 113   13:30  822.0    58   81.1    18    282.1    23.3   1013.9  0.00  
 113   13:40  795.0    58   81.0    18    283.5    22.6   1013.9  0.00  
 113   13:50  756.0    58   80.4    16    286.1    21.1   1013.9  0.00  
 113   14:00  749.0    58   80.2    17    290.5    21.9   1013.9  0.00  
 113   14:10  763.0    58   81.1    17    291.3    22.8   1013.9  0.00  
 113   14:20  742.0    58   81.7    17    292.2    23.1   1013.5  0.00  
 113   14:30  727.0    58   81.4    17    295.3    22.8   1013.5  0.00  
 113   14:40  694.0    58   81.4    18    291.2    23.9   1013.5  0.00  
 113   14:50  682.0    57   81.0    19    299.3    24.9   1013.5  0.00  
 113   15:00  643.0    57   81.1    19    300.0    24.6   1013.5  0.01  
 113   15:10  636.0    58   80.9    17    298.2    21.9   1013.5  0.01  
 113   15:20  613.0    58   80.5    17    298.5    21.1   1013.2  0.01  
 113   15:30  582.0    57   80.7    18    300.6    23.4   1013.2  0.01  
 113   15:40  553.0    57   80.5    19    300.5    25.6   1013.2  0.01  
 113   15:50  529.0    57   80.6    19    300.5    24.0   1013.5  0.01  
 113   16:00  439.0    56   81.9    20    299.6    25.9   1013.5  0.00  
 113   16:10  421.0    56   83.3    19    299.7    25.4   1013.2  0.03  
 113   16:20  414.0    56   84.3    19    299.3    24.8   1013.5  0.00  
 113   16:30  394.0    56   84.6    19    299.2    24.8   1013.5  0.04  
 113   16:40  359.0    56   84.6    18    301.0    23.4   1013.5  0.00  
 113   16:50  342.0    56   84.4    15    303.6    20.3   1013.2  0.00  
 113   17:00  288.0    56   84.1    16    305.0    21.5   1013.2  0.01  
 113   17:10  272.0    55   83.8    16    302.8    22.9   1013.2  0.00  
 113   17:20  251.0    55   83.6    18    300.0    24.0   1013.2  0.00  
 113   17:30  217.0    55   84.2    16    300.5    23.2   1013.2  0.00  
 113   17:40  185.0    55   84.7    15    297.0    20.5   1013.5  0.00  
 113   17:50  122.0    55   85.4    19    299.8    23.8   1013.5  0.08  
 113   18:00   70.0    54   87.3    17    300.9    25.2   1013.5  0.06  
 113   18:10   78.0    54   87.5    15    300.1    20.5   1012.9  0.00  
 113   18:20   50.0    54   87.1    16    298.5    20.8   1013.2  0.00  
 113   18:30   31.0    53   87.4    15    301.3    22.0   1012.9  0.00  
 113   18:40   16.0    53   87.7    14    302.0    21.3   1012.9  0.00  
 113   18:50    8.0    53   88.8    12    302.8    17.7   1012.9  0.07  
 113   19:00    3.0    53   89.6    14    302.7    17.7   1013.2  0.22  
 113   19:10    0.0    53   89.8    13    303.6    17.0   1013.2  0.06  
 113   19:20    0.0    52   88.8    15    303.0    18.7   1013.2  0.10  
 113   19:30    0.0    53   88.6    13    305.5    19.1   1013.2  0.01  
 113   19:40    0.0    53   88.7    13    307.4    17.1   1013.2  0.00  
 113   19:50    0.0    53   88.6    14    307.9    20.0   1013.5  0.05  
 113   20:00    0.0    53   87.8    16    307.1    21.0   1013.5  0.62  
 113   20:10    0.0    52   87.9    14    307.8    19.2   1013.5  0.15  
 113   20:20    0.0    52   88.0    13    310.1    17.8   1013.5  0.09  
 113   20:30    0.0    52   88.4    13    310.4    17.5   1013.5  0.21  
 113   20:40    0.0    52   88.1    12    310.1    15.8   1013.9  0.08  
 113   20:50    0.0    52   88.4    13    311.4    17.2   1013.9  0.02  
 113   21:00    0.0    52   88.7    12    311.4    16.7   1013.9  0.08  
 113   21:10    0.0    52   88.8    12    308.2    16.2   1013.9  0.00  
 113   21:20    0.0    52   88.4    12    310.3    17.8   1013.9  0.03  
 113   21:30    0.0    52   87.3    13    304.8    16.6   1013.9  0.04  
 113   21:40    0.0    52   86.9    12    307.1    19.1   1013.9  0.00  
 113   21:50    0.0    52   86.7    13    308.4    18.0   1013.5  0.04  
 113   22:00    0.0    52   86.9    14    310.2    18.6   1013.5  0.18  
 113   22:10    0.0    52   87.4    13    308.1    17.0   1013.5  0.05  
 113   22:20    0.0    52   87.3    14    308.7    18.3   1013.5  0.01  
 113   22:30    0.0    52   87.1    14    304.4    19.1   1013.2  0.15  
 113   22:40    0.0    52   87.5    14    306.5    19.8   1013.5  0.07  
 113   22:50    0.0    52   87.4    15    306.9    20.2   1013.5  0.27  
 113   23:00    0.0    52   87.3    14    302.5    18.3   1013.2  0.15  
 113   23:10    0.0    52   87.3    14    302.5    21.0   1013.5  0.02  
 113   23:20    0.0    52   87.7    15    304.1    19.7   1013.2  0.41  
 113   23:30    0.0    52   87.7    14    306.0    18.5   1013.5  0.11  
 113   23:40    0.0    52   87.5    12    306.2    16.5   1013.2  0.04  
 113   23:50    0.0    52   87.3    13    307.1    16.4   1013.2  0.03  
 114    0:00    0.0    52   87.7    13    307.8    15.4   1013.2  0.01  
 114    0:10    0.0    52   88.1    13    307.5    16.4   1013.2  0.17  
 114    0:20    0.0    52   88.1    12    306.3    15.4   1013.2  0.00  
 114    0:30    0.0    51   88.7    11    307.8    14.0   1013.2  0.00  
 114    0:40    0.0    52   89.0    10    309.7    13.4   1013.2  0.00  
 114    0:50    0.0    52   89.1    10    309.5    14.2   1013.2  0.08  
 114    1:00    0.0    52   89.4    10    310.9    12.9   1013.2  0.00  
 114    1:10    0.0    52   89.9     9    311.3    12.6   1013.2  0.00  
 114    1:20    0.0    52   90.6    10    311.6    12.1   1012.9  0.00  
 114    1:30    0.0    52   90.7    10    309.4    12.8   1012.9  0.00  
 114    1:40    0.0    52   90.8     9    311.5    11.5   1012.9  0.00  
 114    1:50    0.0    52   90.9     8    311.7    10.2   1012.9  0.00  
 114    2:00    0.0    52   90.8     8    310.4     9.9   1012.5  0.00  
 114    2:10    0.0    52   90.7     8    311.3     9.9   1012.5  0.00  
 114    2:20    0.0    52   90.4     8    306.8    10.7   1012.5  0.00  
 114    2:30    0.0    52   89.0    10    302.4    12.9   1012.9  0.00  
 114    2:40    0.0    52   87.6    10    305.9    13.7   1012.5  0.00  
 114    2:50    0.0    52   87.2    10    308.2    13.5   1012.5  0.00  
 114    3:00    0.0    52   87.4    10    307.5    12.1   1012.9  0.00  
 114    3:10    0.0    52   87.9     9    308.6    12.1   1013.2  0.00  
 114    3:20    0.0    52   88.4     9    310.1    11.3   1013.2  0.00  
 114    3:30    0.0    52   88.4     9    308.0    12.5   1013.2  0.00  
 114    3:40    0.0    52   88.5     8    309.2    10.4   1013.2  0.00  
 114    3:50    0.0    52   89.0     6    310.9     8.3   1013.2  0.00  
 114    4:00    0.0    52   89.5     5    314.8     6.1   1013.2  0.00  
 114    4:10    0.0    52   90.0     4    320.1     5.0   1013.2  0.00  
 114    4:20    0.0    52   90.4     3    332.1     3.9   1012.9  0.00  
 114    4:30    0.0    52   91.0     4    327.6     5.0   1013.2  0.00  
 114    4:40    0.0    52   91.5     4    330.1     5.9   1013.2  0.01  
 114    4:50    0.0    52   91.7     4    319.4     5.6   1013.2  0.00  
 114    5:00    0.0    52   91.8     4    307.9     5.0   1013.2  0.00  
 114    5:10    0.0    52   91.8     2    290.0     3.9   1012.9  0.00  
 114    5:20    0.0    51   91.8     2    242.4     2.6   1012.9  0.00  
 114    5:30    1.0    51   92.0     2    229.0     2.8   1012.9  0.00  
 114    5:40    4.0    51   92.2     2    214.0     2.6   1012.9  0.00  
 114    5:50    7.0    52   92.5     2    187.9     2.4   1012.9  0.00  
 114    6:00   11.0    52   92.7     2    179.6     2.4   1013.2  0.00  
 114    6:10   20.0    52   92.8     0    173.0     0.4   1013.2  0.00  
 114    6:20   28.0    52   92.8     0    168.3     1.1   1013.5  0.00  
 114    6:30   23.0    52   92.7     1    269.0     2.8   1013.5  0.00  
 114    6:40   20.0    52   92.8     2    234.7     3.1   1013.5  0.00  
 114    6:50   44.0    52   93.0     3    228.0     4.1   1013.5  0.00  
 114    7:00   39.0    52   93.5     4    223.0     4.7   1013.5  0.00  
 114    7:10   65.0    52   94.1     4    206.9     5.1   1013.5  0.00  
 114    7:20   72.0    52   94.7     4    202.3     5.2   1013.9  0.00  
 114    7:30   69.0    53   95.2     4    212.3     5.8   1013.9  0.00  
 114    7:40   65.0    53   95.6     4    229.8     6.8   1013.9  0.00  
 114    7:50   88.0    53   95.8     4    231.9     5.8   1014.2  0.00  
 114    8:00  100.0    53   96.1     4    226.9     5.9   1014.2  0.00  
 114    8:10  113.0    53   96.3     4    221.8     6.0   1014.2  0.00  
 114    8:20  179.0    54   96.3     5    227.4     7.1   1014.2  0.00  
 114    8:30  115.0    54   96.2     6    242.2     7.7   1014.2  0.00  
 114    8:40   98.0    54   96.1     8    248.8    12.0   1014.6  0.00  
 114    8:50  100.0    53   96.2    11    251.9    15.1   1014.6  0.00  
 114    9:00  122.0    54   96.7    13    259.8    18.2   1014.6  0.00  
 114    9:10  120.0    54   96.9     9    287.7    14.2   1014.6  0.00  
 114    9:20  103.0    53   96.8     7    275.1     9.1   1014.9  0.00  
 114    9:30  130.0    54   97.3     8    265.6    15.3   1014.9  0.00  
 114    9:40  162.0    54   97.2    11    263.2    14.7   1014.9  0.00  
 114    9:50  190.0    54   97.3    10    258.6    12.8   1014.9  0.00  
 114   10:00  151.0    54   97.2    10    259.1    13.2   1014.9  0.00  
 114   10:10  195.0    54   97.4     8    265.4    11.5   1014.9  0.00  
 114   10:20  223.0    54   97.3     9    261.4    11.6   1015.2  0.00  
 114   10:30  268.0    54   97.5     9    255.1    12.1   1015.2  0.00  
 114   10:40  312.0    54   97.5     9    257.3    12.6   1014.9  0.00  
 114   10:50  337.0    55   97.7     9    253.8    12.6   1014.9  0.00  
 114   11:00  327.0    54   97.5    10    255.5    12.1   1014.9  0.00  
 114   11:10  300.0    54   97.7     9    256.0    11.9   1014.9  0.00  
 114   11:20  314.0    54   97.7    10    251.1    12.6   1014.9  0.00  
 114   11:30  327.0    55   97.8     8    240.7    11.2   1014.9  0.00  
 114   11:40  185.0    55   97.7     8    243.1    10.4   1014.9  0.00  
 114   11:50  152.0    54   97.7     7    232.7     9.3   1014.6  0.00  
 114   12:00  128.0    54   97.7     6    242.2     8.8   1014.6  0.00  
 114   12:10  251.0    55   97.9     7    256.7    11.5   1014.6  0.00  
 114   12:20  376.0    55   97.8     9    250.0    13.0   1014.6  0.00  

Return to Pt. Reyes graphs page.


Western Regional Climate Center,wrcc@dri.edu